createdAt,value
2019-02-21T00:01:20.171Z,14.33
2019-02-21T00:04:00.043Z,13.45
2019-02-21T00:06:39.778Z,13.20
2019-02-21T00:09:19.570Z,13.75
2019-02-21T00:11:59.439Z,14.20
2019-02-21T00:14:39.336Z,14.85
2019-02-21T00:17:19.049Z,13.55
2019-02-21T00:19:58.829Z,12.43
2019-02-21T00:22:38.854Z,13.75
2019-02-21T00:25:18.714Z,13.70
2019-02-21T00:27:58.639Z,13.78
2019-02-21T00:30:38.490Z,13.85
2019-02-21T00:33:18.538Z,13.53
2019-02-21T00:35:58.279Z,13.32
2019-02-21T00:38:38.056Z,12.73
2019-02-21T00:41:17.974Z,13.68
2019-02-21T00:43:57.712Z,14.00
2019-02-21T00:46:37.464Z,13.38
2019-02-21T00:49:17.386Z,13.38
2019-02-21T00:51:57.128Z,13.53
2019-02-21T00:54:36.928Z,13.45
2019-02-21T00:57:17.129Z,12.82
2019-02-21T00:59:56.985Z,14.18
2019-02-21T01:02:36.697Z,13.50
2019-02-21T01:05:16.538Z,12.50
2019-02-21T01:07:56.407Z,13.30
2019-02-21T01:10:36.199Z,12.50
2019-02-21T01:13:16.019Z,13.10
2019-02-21T01:15:55.707Z,13.32
2019-02-21T01:18:35.612Z,12.82
2019-02-21T01:21:15.287Z,13.83
2019-02-21T01:23:55.103Z,12.13
2019-02-21T01:26:34.837Z,13.43
2019-02-21T01:29:14.732Z,13.62
2019-02-21T01:31:54.770Z,12.15
2019-02-21T01:34:34.615Z,12.30
2019-02-21T01:37:14.350Z,13.03
2019-02-21T01:39:54.204Z,11.95
2019-02-21T01:42:33.949Z,11.83
2019-02-21T01:45:13.829Z,12.78
2019-02-21T01:47:53.641Z,18.75
2019-02-21T01:50:33.929Z,12.40
2019-02-21T01:53:13.970Z,12.73
2019-02-21T01:55:53.722Z,12.25
2019-02-21T01:58:33.600Z,11.48
2019-02-21T02:01:13.429Z,11.63
2019-02-21T02:03:53.249Z,11.80
2019-02-21T02:06:34.009Z,12.37
2019-02-21T02:09:14.904Z,12.63
2019-02-21T02:11:54.722Z,11.60
2019-02-21T02:14:34.622Z,12.90
2019-02-21T02:17:14.383Z,12.58
2019-02-21T02:19:54.103Z,12.68
2019-02-21T02:22:33.744Z,13.55
2019-02-21T02:25:13.490Z,12.85
2019-02-21T02:27:53.231Z,12.07
2019-02-21T02:30:32.954Z,13.40
2019-02-21T02:33:12.829Z,12.10
2019-02-21T02:35:52.679Z,12.78
2019-02-21T02:38:32.418Z,13.32
2019-02-21T02:41:12.877Z,12.00
2019-02-21T02:43:52.747Z,12.68
2019-02-21T02:46:32.404Z,13.78
2019-02-21T02:49:13.604Z,13.72
2019-02-21T02:51:53.390Z,12.82
2019-02-21T02:54:43.429Z,12.82
2019-02-21T02:57:23.382Z,13.40
2019-02-21T03:00:14.434Z,13.25
2019-02-21T03:02:55.908Z,12.70
2019-02-21T03:05:35.682Z,14.07
2019-02-21T03:08:15.445Z,14.45
2019-02-21T03:10:55.214Z,14.20
2019-02-21T03:13:36.679Z,13.32
2019-02-21T03:16:16.402Z,14.53
2019-02-21T03:18:56.081Z,13.35
2019-02-21T03:21:35.802Z,13.55
2019-02-21T03:24:15.511Z,13.93
2019-02-21T03:26:55.237Z,14.15
2019-02-21T03:29:35.043Z,15.32
2019-02-21T03:32:14.916Z,13.05
2019-02-21T03:34:55.063Z,13.65
2019-02-21T03:37:34.779Z,13.45
2019-02-21T03:40:15.562Z,14.15
2019-02-21T03:42:55.300Z,14.15
2019-02-21T03:45:35.015Z,13.93
2019-02-21T03:48:14.770Z,13.15
2019-02-21T03:50:54.756Z,13.18
2019-02-21T03:53:34.619Z,13.98
2019-02-21T03:56:14.899Z,14.05
2019-02-21T03:58:54.732Z,14.68
2019-02-21T04:01:34.486Z,14.07
2019-02-21T04:04:14.139Z,13.28
2019-02-21T04:06:53.877Z,14.58
2019-02-21T04:09:33.570Z,14.40
2019-02-21T04:12:14.195Z,13.62
2019-02-21T04:14:54.006Z,14.28
2019-02-21T04:17:33.916Z,12.80
2019-02-21T04:20:13.840Z,14.35
2019-02-21T04:22:53.649Z,14.60
2019-02-21T04:25:33.314Z,13.45
2019-02-21T04:28:14.263Z,14.05
2019-02-21T04:30:54.076Z,13.62
2019-02-21T04:33:34.498Z,14.65
2019-02-21T04:36:14.403Z,13.85
2019-02-21T04:38:54.407Z,13.25
2019-02-21T04:41:34.234Z,12.93
2019-02-21T04:44:14.053Z,13.60
2019-02-21T04:46:53.768Z,13.78
2019-02-21T04:49:33.559Z,14.68
2019-02-21T04:52:13.427Z,13.38
2019-02-21T04:54:53.765Z,16.95
2019-02-21T04:57:33.741Z,16.40
2019-02-21T05:00:13.927Z,15.48
2019-02-21T05:02:53.736Z,14.63
2019-02-21T05:05:33.769Z,17.75
2019-02-21T05:08:13.698Z,18.40
2019-02-21T05:10:53.463Z,16.57
2019-02-21T05:13:33.925Z,13.68
2019-02-21T05:16:13.973Z,13.72
2019-02-21T05:18:53.805Z,13.93
2019-02-21T05:21:33.543Z,14.93
2019-02-21T05:24:13.345Z,14.53
2019-02-21T05:27:00.396Z,14.70
2019-02-21T05:29:40.571Z,14.13
2019-02-21T05:32:40.988Z,14.58
2019-02-21T05:35:31.125Z,15.43
2019-02-21T05:38:35.452Z,14.28
2019-02-21T05:41:37.238Z,14.05
2019-02-21T05:44:29.123Z,14.30
2019-02-21T05:47:37.155Z,14.20
2019-02-21T05:50:28.742Z,14.63
2019-02-21T05:53:33.302Z,15.58
2019-02-21T05:56:30.128Z,14.28
2019-02-21T05:59:20.663Z,15.08
2019-02-21T06:02:19.450Z,14.23
2019-02-21T06:05:19.280Z,15.48
2019-02-21T06:08:21.817Z,14.78
2019-02-21T06:11:18.494Z,14.43
2019-02-21T06:14:11.277Z,15.20
2019-02-21T06:17:28.641Z,15.23
2019-02-21T06:20:33.759Z,14.45
2019-02-21T06:23:32.788Z,14.47
2019-02-21T06:26:19.875Z,15.23
2019-02-21T06:29:03.727Z,15.25
2019-02-21T06:31:43.460Z,13.75
2019-02-21T06:34:23.193Z,13.83
2019-02-21T06:37:03.002Z,13.93
2019-02-21T06:39:42.858Z,13.50
2019-02-21T06:42:22.622Z,14.38
2019-02-21T06:45:02.738Z,13.85
2019-02-21T06:47:42.482Z,13.22
2019-02-21T06:50:26.700Z,14.28
2019-02-21T06:53:03.707Z,13.40
2019-02-21T06:55:43.549Z,13.90
2019-02-21T06:58:23.569Z,14.25
2019-02-21T07:01:03.343Z,16.80
2019-02-21T07:03:43.512Z,15.03
2019-02-21T07:06:31.365Z,15.70
2019-02-21T07:09:05.738Z,15.75
2019-02-21T07:11:46.105Z,15.08
2019-02-21T07:14:26.287Z,15.50
2019-02-21T07:17:08.452Z,15.70
2019-02-21T07:19:48.871Z,20.20
2019-02-21T07:22:28.632Z,15.50
2019-02-21T07:25:21.894Z,16.67
2019-02-21T07:28:11.347Z,16.42
2019-02-21T07:30:43.366Z,16.50
2019-02-21T07:33:28.550Z,19.23
2019-02-21T07:36:04.735Z,15.32
2019-02-21T07:38:44.521Z,15.58
2019-02-21T07:41:24.335Z,16.48
2019-02-21T07:44:11.618Z,15.00
2019-02-21T07:46:46.426Z,15.13
2019-02-21T07:49:26.870Z,15.18
2019-02-21T07:52:07.103Z,16.65
2019-02-21T07:54:50.902Z,15.70
2019-02-21T07:57:30.761Z,15.85
2019-02-21T08:00:11.742Z,15.30
2019-02-21T08:02:51.640Z,16.70
2019-02-21T08:05:34.185Z,16.23
2019-02-21T08:08:16.167Z,15.78
2019-02-21T08:10:55.987Z,16.73
2019-02-21T08:13:35.817Z,16.50
2019-02-21T08:16:15.780Z,16.82
2019-02-21T08:18:55.639Z,15.93
2019-02-21T08:21:35.465Z,16.90
2019-02-21T08:24:15.354Z,17.02
2019-02-21T08:26:55.173Z,17.17
2019-02-21T08:29:34.981Z,17.60
2019-02-21T08:32:16.847Z,16.75
2019-02-21T08:34:56.852Z,17.87
2019-02-21T08:37:36.662Z,18.37
2019-02-21T08:40:16.483Z,17.48
2019-02-21T08:42:56.488Z,17.73
2019-02-21T08:45:36.203Z,17.98
2019-02-21T08:48:16.044Z,17.98
2019-02-21T08:50:56.036Z,18.05
2019-02-21T08:53:36.003Z,17.73
2019-02-21T08:56:16.203Z,18.17
2019-02-21T08:58:57.681Z,19.12
2019-02-21T09:01:37.583Z,18.67
2019-02-21T09:04:26.915Z,18.98
2019-02-21T09:06:59.830Z,19.50
2019-02-21T09:09:40.364Z,19.40
2019-02-21T09:12:20.462Z,19.98
2019-02-21T09:15:00.613Z,19.62
2019-02-21T09:17:40.455Z,17.80
2019-02-21T09:20:20.387Z,21.02
2019-02-21T09:23:00.198Z,16.07
2019-02-21T09:25:39.837Z,17.73
2019-02-21T09:28:19.695Z,18.52
2019-02-21T09:30:59.561Z,18.35
2019-02-21T09:33:39.632Z,18.82
2019-02-21T09:36:19.350Z,18.25
2019-02-21T09:38:59.117Z,18.23
2019-02-21T09:41:39.053Z,18.92
2019-02-21T09:44:19.297Z,25.10
2019-02-21T09:47:02.373Z,19.65
2019-02-21T09:49:42.167Z,20.27
2019-02-21T09:52:22.179Z,18.92
2019-02-21T09:55:02.080Z,19.75
2019-02-21T09:57:43.144Z,18.27
2019-02-21T10:00:22.941Z,19.73
2019-02-21T10:03:03.781Z,20.17
2019-02-21T10:05:43.680Z,18.32
2019-02-21T10:08:23.632Z,18.80
2019-02-21T10:11:03.549Z,20.00
2019-02-21T10:13:44.616Z,18.27
2019-02-21T10:16:24.410Z,18.40
2019-02-21T10:19:04.274Z,19.15
2019-02-21T10:21:44.066Z,18.17
2019-02-21T10:24:23.842Z,16.02
2019-02-21T10:27:03.644Z,17.92
2019-02-21T10:29:43.443Z,19.20
2019-02-21T10:32:23.279Z,17.32
2019-02-21T10:35:03.064Z,17.50
2019-02-21T10:37:42.940Z,18.35
2019-02-21T10:40:23.216Z,17.32
2019-02-21T10:43:02.977Z,17.62
2019-02-21T10:45:47.743Z,17.62
2019-02-21T10:48:27.090Z,18.25
2019-02-21T10:51:06.963Z,16.30
2019-02-21T10:53:47.397Z,17.12
2019-02-21T10:56:27.218Z,17.27
2019-02-21T10:59:06.971Z,16.62
2019-02-21T11:01:46.824Z,17.07
2019-02-21T11:04:26.946Z,16.25
2019-02-21T11:07:06.647Z,18.77
2019-02-21T11:09:47.313Z,17.35
2019-02-21T11:12:27.199Z,18.70
2019-02-21T11:15:10.967Z,17.98
2019-02-21T11:17:51.029Z,17.85
2019-02-21T11:20:30.869Z,18.57
2019-02-21T11:23:10.719Z,19.32
2019-02-21T11:25:51.825Z,17.73
2019-02-21T11:28:31.776Z,17.77
2019-02-21T11:31:11.711Z,16.70
2019-02-21T11:33:51.998Z,16.75
2019-02-21T11:36:31.895Z,17.27
2019-02-21T11:39:11.683Z,17.17
2019-02-21T11:41:51.496Z,16.65
2019-02-21T11:44:31.332Z,17.40
2019-02-21T11:47:11.227Z,16.90
2019-02-21T11:49:53.279Z,17.20
2019-02-21T11:52:33.286Z,18.75
2019-02-21T11:55:16.232Z,18.02
2019-02-21T11:57:56.068Z,16.73
2019-02-21T12:00:36.175Z,17.45
2019-02-21T12:03:16.116Z,18.12
2019-02-21T12:05:55.885Z,16.95
2019-02-21T12:08:35.738Z,19.17
2019-02-21T12:11:15.604Z,18.98
2019-02-21T12:13:55.539Z,19.23
2019-02-21T12:16:38.541Z,17.62
2019-02-21T12:19:19.035Z,18.35
2019-02-21T12:21:59.543Z,18.02
2019-02-21T12:24:39.364Z,17.07
2019-02-21T12:27:19.194Z,17.10
2019-02-21T12:29:59.031Z,19.32
2019-02-21T12:32:38.854Z,16.37
2019-02-21T12:35:29.395Z,18.40
2019-02-21T12:38:00.038Z,16.15
2019-02-21T12:40:39.858Z,17.27
2019-02-21T12:43:21.040Z,15.70
2019-02-21T12:46:03.144Z,14.68
2019-02-21T12:48:42.989Z,13.93
2019-02-21T12:51:22.956Z,15.60
2019-02-21T12:54:06.330Z,14.58
2019-02-21T12:56:45.812Z,14.23
2019-02-21T12:59:25.495Z,13.45
2019-02-21T13:02:05.941Z,13.87
2019-02-21T13:04:45.737Z,13.58
2019-02-21T13:07:27.486Z,13.70
2019-02-21T13:10:11.277Z,13.58
2019-02-21T13:12:51.118Z,13.58
2019-02-21T13:15:31.857Z,13.18
2019-02-21T13:18:15.854Z,14.10
2019-02-21T13:20:52.946Z,11.93
2019-02-21T13:23:32.669Z,11.47
2019-02-21T13:26:12.700Z,11.88
2019-02-21T13:28:52.161Z,11.80
2019-02-21T13:31:31.927Z,12.13
2019-02-21T13:34:11.862Z,12.88
2019-02-21T13:36:51.393Z,11.90
2019-02-21T13:39:31.237Z,14.18
2019-02-21T13:42:10.787Z,11.27
2019-02-21T13:44:50.536Z,12.85
2019-02-21T13:47:30.430Z,12.95
2019-02-21T13:50:14.098Z,13.75
2019-02-21T13:52:53.537Z,12.90
2019-02-21T13:55:33.434Z,12.40
2019-02-21T13:58:13.320Z,12.37
2019-02-21T14:00:53.128Z,11.80
2019-02-21T14:03:32.869Z,12.07
2019-02-21T14:06:15.148Z,12.33
2019-02-21T14:08:54.853Z,14.58
2019-02-21T14:11:34.740Z,12.63
2019-02-21T14:14:14.550Z,12.85
2019-02-21T14:16:54.426Z,12.55
2019-02-21T14:19:34.168Z,15.35
2019-02-21T14:22:15.454Z,14.15
2019-02-21T14:24:55.138Z,14.07
2019-02-21T14:27:34.863Z,15.28
2019-02-21T14:30:17.094Z,14.93
2019-02-21T14:32:59.882Z,15.60
2019-02-21T14:35:40.798Z,15.70
2019-02-21T14:38:27.776Z,16.25
2019-02-21T14:41:01.980Z,15.28
2019-02-21T14:43:41.774Z,15.88
2019-02-21T14:46:21.856Z,15.58
2019-02-21T14:49:01.584Z,15.43
2019-02-21T14:51:42.558Z,15.93
2019-02-21T14:54:24.060Z,15.83
2019-02-21T14:57:03.838Z,14.70
2019-02-21T14:59:46.351Z,15.43
2019-02-21T15:02:26.044Z,15.30
2019-02-21T15:05:06.276Z,14.85
2019-02-21T15:07:46.098Z,14.93
2019-02-21T15:10:25.893Z,15.03
2019-02-21T15:13:05.622Z,14.38
2019-02-21T15:15:45.516Z,16.23
2019-02-21T15:18:25.337Z,16.23
2019-02-21T15:21:06.167Z,15.90
2019-02-21T15:23:46.015Z,15.35
2019-02-21T15:26:26.054Z,16.10
2019-02-21T15:29:05.764Z,15.75
2019-02-21T15:31:46.131Z,15.98
2019-02-21T15:34:26.991Z,16.55
2019-02-21T15:37:07.266Z,15.70
2019-02-21T15:39:47.024Z,16.35
2019-02-21T15:42:26.902Z,16.23
2019-02-21T15:45:22.897Z,16.10
2019-02-21T15:47:58.798Z,15.93
2019-02-21T15:50:38.617Z,15.85
2019-02-21T15:53:18.550Z,16.05
2019-02-21T15:55:58.446Z,16.55
2019-02-21T15:58:38.500Z,15.93
2019-02-21T16:01:18.364Z,16.07
2019-02-21T16:03:58.331Z,20.55
2019-02-21T16:06:48.207Z,16.23
2019-02-21T16:09:22.048Z,21.48
2019-02-21T16:12:02.405Z,19.80
2019-02-21T16:14:42.192Z,21.00
2019-02-21T16:17:22.067Z,15.50
2019-02-21T16:20:02.127Z,19.85
2019-02-21T16:22:42.155Z,40.30
2019-02-21T16:25:22.735Z,18.87
2019-02-21T16:28:02.664Z,18.65
2019-02-21T16:30:42.588Z,23.98
2019-02-21T16:33:22.320Z,15.95
2019-02-21T16:36:02.412Z,26.62
2019-02-21T16:38:43.932Z,18.35
2019-02-21T16:41:24.151Z,17.52
2019-02-21T16:44:04.049Z,17.65
2019-02-21T16:46:44.069Z,19.50
2019-02-21T16:49:24.827Z,16.05
2019-02-21T16:52:04.936Z,15.88
2019-02-21T16:54:44.779Z,15.63
2019-02-21T16:57:24.472Z,15.20
2019-02-21T17:00:04.459Z,16.35
2019-02-21T17:02:45.845Z,15.28
2019-02-21T17:05:25.743Z,16.50
2019-02-21T17:08:05.750Z,15.18
2019-02-21T17:10:45.653Z,15.08
2019-02-21T17:13:25.366Z,15.32
2019-02-21T17:16:05.131Z,14.95
2019-02-21T17:18:44.899Z,14.10
2019-02-21T17:21:25.690Z,14.35
2019-02-21T17:24:05.832Z,13.13
2019-02-21T17:26:46.570Z,12.68
2019-02-21T17:29:26.332Z,12.93
2019-02-21T17:32:06.297Z,13.10
2019-02-21T17:34:46.124Z,11.55
2019-02-21T17:37:27.202Z,11.85
2019-02-21T17:40:09.838Z,11.60
2019-02-21T17:42:49.738Z,13.15
2019-02-21T17:45:29.829Z,11.05
2019-02-21T17:48:09.763Z,12.03
2019-02-21T17:50:49.537Z,10.85
2019-02-21T17:53:29.375Z,11.40
2019-02-21T17:56:09.621Z,11.90
2019-02-21T17:58:49.462Z,12.30
2019-02-21T18:01:29.570Z,11.57
2019-02-21T18:04:11.373Z,12.88
2019-02-21T18:06:51.484Z,12.93
2019-02-21T18:09:31.717Z,13.62
2019-02-21T18:12:12.607Z,13.25
2019-02-21T18:14:55.745Z,13.22
2019-02-21T18:17:35.797Z,13.25
2019-02-21T18:20:15.920Z,13.40
2019-02-21T18:22:56.126Z,13.53
2019-02-21T18:25:44.078Z,14.33
2019-02-21T18:28:24.442Z,13.78
2019-02-21T18:31:06.134Z,14.28
2019-02-21T18:33:46.224Z,14.05
2019-02-21T18:36:26.246Z,14.83
2019-02-21T18:39:09.545Z,18.05
2019-02-21T18:41:50.005Z,16.67
2019-02-21T18:44:30.245Z,16.80
2019-02-21T18:47:10.083Z,15.95
2019-02-21T18:49:50.229Z,16.65
2019-02-21T18:52:35.301Z,18.15
2019-02-21T18:55:15.500Z,18.15
2019-02-21T18:57:55.257Z,17.60
2019-02-21T19:00:35.571Z,19.10
2019-02-21T19:03:15.549Z,19.20
2019-02-21T19:05:56.117Z,18.90
2019-02-21T19:08:38.903Z,18.42
2019-02-21T19:11:19.081Z,18.32
2019-02-21T19:13:58.912Z,18.95
2019-02-21T19:16:39.450Z,19.50
2019-02-21T19:19:19.298Z,18.73
2019-02-21T19:22:00.617Z,18.80
2019-02-21T19:24:40.784Z,19.12
2019-02-21T19:27:20.809Z,18.75
2019-02-21T19:30:00.808Z,19.42
2019-02-21T19:32:42.603Z,18.52
2019-02-21T19:35:22.550Z,19.55
2019-02-21T19:38:10.418Z,19.12
2019-02-21T19:40:46.250Z,19.55
2019-02-21T19:43:26.125Z,19.40
2019-02-21T19:46:06.110Z,20.08
2019-02-21T19:48:49.610Z,20.65
2019-02-21T19:51:31.619Z,20.17
2019-02-21T19:54:11.700Z,19.60
2019-02-21T19:56:51.525Z,20.20
2019-02-21T19:59:33.779Z,20.97
2019-02-21T20:02:13.557Z,20.70
2019-02-21T20:04:55.201Z,21.12
2019-02-21T20:07:35.056Z,21.65
2019-02-21T20:10:15.660Z,23.42
2019-02-21T20:12:57.266Z,22.85
2019-02-21T20:15:42.018Z,22.42
2019-02-21T20:18:23.865Z,22.37
2019-02-21T20:21:03.862Z,24.18
2019-02-21T20:23:43.788Z,22.62
2019-02-21T20:26:23.682Z,22.75
2019-02-21T20:29:05.451Z,22.95
2019-02-21T20:31:46.512Z,23.30
2019-02-21T20:34:26.388Z,23.27
2019-02-21T20:37:06.459Z,23.25
2019-02-21T20:39:47.543Z,25.08
2019-02-21T20:42:27.691Z,24.37
2019-02-21T20:45:08.242Z,24.95
2019-02-21T20:47:49.235Z,24.67
2019-02-21T20:50:29.058Z,24.85
2019-02-21T20:53:09.137Z,24.18
2019-02-21T20:55:49.100Z,24.43
2019-02-21T20:58:29.227Z,24.32
2019-02-21T21:01:09.305Z,25.12
2019-02-21T21:03:49.255Z,24.43
2019-02-21T21:06:30.397Z,27.05
2019-02-21T21:09:12.125Z,26.52
2019-02-21T21:11:56.332Z,26.62
2019-02-21T21:14:37.314Z,27.93
2019-02-21T21:17:20.453Z,27.40
2019-02-21T21:20:00.456Z,28.35
2019-02-21T21:22:40.422Z,28.10
2019-02-21T21:25:20.828Z,28.67
2019-02-21T21:28:00.633Z,29.25
2019-02-21T21:30:40.861Z,29.30
2019-02-21T21:33:21.470Z,30.08
2019-02-21T21:36:01.596Z,29.82
2019-02-21T21:38:53.367Z,29.23
2019-02-21T21:41:24.853Z,29.77
2019-02-21T21:44:04.993Z,30.45
2019-02-21T21:46:45.928Z,30.40
2019-02-21T21:49:27.395Z,31.45
2019-02-21T21:52:07.598Z,31.73
2019-02-21T21:54:50.241Z,32.20
2019-02-21T21:57:30.384Z,30.68
2019-02-21T22:00:18.387Z,32.88
2019-02-21T22:02:59.629Z,32.00
2019-02-21T22:05:39.459Z,31.65
2019-02-21T22:08:19.406Z,32.35
2019-02-21T22:10:59.255Z,32.53
2019-02-21T22:13:39.121Z,33.00
2019-02-21T22:16:19.167Z,32.98
2019-02-21T22:19:00.596Z,33.95
2019-02-21T22:21:41.536Z,35.78
2019-02-21T22:24:21.623Z,35.05
2019-02-21T22:27:01.375Z,34.78
2019-02-21T22:29:41.383Z,37.13
2019-02-21T22:32:21.148Z,37.05
2019-02-21T22:35:01.373Z,36.98
2019-02-21T22:37:41.224Z,38.80
2019-02-21T22:40:21.393Z,40.25
2019-02-21T22:43:03.624Z,39.40
2019-02-21T22:45:43.857Z,40.67
2019-02-21T22:48:23.643Z,38.42
2019-02-21T22:51:03.592Z,39.88
2019-02-21T22:53:43.496Z,38.15
2019-02-21T22:56:23.345Z,36.83
2019-02-21T22:59:03.180Z,35.10
2019-02-21T23:01:46.188Z,35.50
2019-02-21T23:05:06.495Z,32.83
2019-02-21T23:08:32.188Z,32.95
2019-02-21T23:11:12.410Z,33.50
2019-02-21T23:13:52.709Z,33.58
2019-02-21T23:16:32.538Z,34.13
2019-02-21T23:19:12.651Z,34.55
2019-02-21T23:21:55.372Z,33.48
2019-02-21T23:24:35.342Z,33.18
2019-02-21T23:27:15.119Z,33.30
2019-02-21T23:29:54.904Z,33.30
2019-02-21T23:32:34.583Z,32.40
2019-02-21T23:35:20.215Z,33.78
2019-02-21T23:37:59.854Z,34.40
2019-02-21T23:40:39.725Z,33.80
2019-02-21T23:43:21.966Z,32.78
2019-02-21T23:46:03.383Z,35.33
2019-02-21T23:48:43.231Z,34.50
2019-02-21T23:51:23.136Z,35.08
2019-02-21T23:54:03.560Z,35.23
2019-02-21T23:56:43.628Z,34.48
2019-02-21T23:59:23.468Z,36.08
